Time,TemperatureF,DewpointF,PressureIn,WindDirection,WindDirectionDegrees,WindSpeedMPH,WindSpeedGustMPH,Humidity,HourlyPrecipIn,Conditions,Clouds,dailyrainin,SoftwareType,DateUTC
2013-05-04 00:02:00,50.0,34.0,30.02,NW,315,1.0,2.0,55,0.00,,,0.00,,2013-05-04 05:02:00,
2013-05-04 00:11:00,50.0,34.0,30.01,NW,314,2.0,3.0,53,0.00,,,0.00,,2013-05-04 05:11:00,
2013-05-04 00:22:00,50.0,34.0,30.01,NW,314,2.0,3.0,53,0.00,,,0.00,,2013-05-04 05:22:00,
2013-05-04 00:32:00,50.0,34.0,30.01,NW,314,0.0,2.0,54,0.00,,,0.00,,2013-05-04 05:32:00,
2013-05-04 00:42:00,50.0,34.0,30.01,NW,314,0.0,2.0,54,0.00,,,0.00,,2013-05-04 05:42:00,
2013-05-04 00:52:00,49.0,35.0,30.01,NW,314,0.0,0.0,58,0.00,,,0.00,,2013-05-04 05:52:00,
2013-05-04 01:01:00,48.0,34.0,30.00,NW,314,0.0,0.0,59,0.00,,,0.00,,2013-05-04 06:01:00,
2013-05-04 01:11:00,47.0,35.0,30.01,NW,314,0.0,0.0,62,0.00,,,0.00,,2013-05-04 06:11:00,
2013-05-04 01:21:00,47.0,35.0,30.01,NW,314,0.0,0.0,62,0.00,,,0.00,,2013-05-04 06:21:00,
2013-05-04 01:32:00,47.0,34.0,30.00,NW,315,2.0,3.0,61,0.00,,,0.00,,2013-05-04 06:32:00,
2013-05-04 01:41:00,47.0,34.0,30.00,NW,315,2.0,3.0,61,0.00,,,0.00,,2013-05-04 06:41:00,
2013-05-04 01:52:00,48.0,34.0,30.00,NW,315,1.0,3.0,59,0.00,,,0.00,,2013-05-04 06:52:00,
2013-05-04 02:01:00,48.0,35.0,30.00,NW,315,0.0,0.0,61,0.00,,,0.00,,2013-05-04 07:01:00,
2013-05-04 02:11:00,47.0,34.0,29.99,NW,315,0.0,0.0,61,0.00,,,0.00,,2013-05-04 07:11:00,
2013-05-04 02:21:00,47.0,34.0,29.99,NW,315,0.0,0.0,61,0.00,,,0.00,,2013-05-04 07:21:00,
2013-05-04 02:32:00,46.0,35.0,29.98,NW,314,0.0,0.0,65,0.00,,,0.00,,2013-05-04 07:32:00,
2013-05-04 02:42:00,46.0,35.0,29.98,NW,314,0.0,0.0,65,0.00,,,0.00,,2013-05-04 07:42:00,
2013-05-04 02:52:00,45.0,35.0,29.98,NW,315,0.0,0.0,68,0.00,,,0.00,,2013-05-04 07:52:00,
2013-05-04 03:01:00,44.0,34.0,29.97,NW,315,0.0,0.0,69,0.00,,,0.00,,2013-05-04 08:01:00,
2013-05-04 03:11:00,44.0,34.0,29.97,NW,315,0.0,0.0,69,0.00,,,0.00,,2013-05-04 08:11:00,
2013-05-04 03:21:00,43.0,35.0,29.97,NW,315,0.0,0.0,72,0.00,,,0.00,,2013-05-04 08:21:00,
2013-05-04 03:31:00,43.0,35.0,29.97,NW,315,0.0,0.0,74,0.00,,,0.00,,2013-05-04 08:31:00,
2013-05-04 03:41:00,43.0,35.0,29.97,NW,315,0.0,0.0,74,0.00,,,0.00,,2013-05-04 08:41:00,
2013-05-04 03:52:00,42.0,35.0,29.97,NW,315,0.0,0.0,75,0.00,,,0.00,,2013-05-04 08:52:00,
2013-05-04 04:02:00,42.0,35.0,29.96,NW,315,0.0,0.0,77,0.00,,,0.00,,2013-05-04 09:02:00,
2013-05-04 04:11:00,42.0,35.0,29.96,NW,315,0.0,0.0,77,0.00,,,0.00,,2013-05-04 09:11:00,
2013-05-04 04:21:00,41.0,35.0,29.96,NW,314,0.0,0.0,78,0.00,,,0.00,,2013-05-04 09:21:00,
2013-05-04 04:32:00,41.0,35.0,29.96,NW,314,0.0,0.0,79,0.00,,,0.00,,2013-05-04 09:32:00,
2013-05-04 04:42:00,41.0,35.0,29.96,NW,314,0.0,0.0,79,0.00,,,0.00,,2013-05-04 09:42:00,
2013-05-04 04:53:00,41.0,35.0,29.96,NW,314,0.0,0.0,80,0.00,,,0.00,,2013-05-04 09:53:00,
2013-05-04 05:02:00,41.0,36.0,29.96,NW,314,0.0,0.0,81,0.00,,,0.00,,2013-05-04 10:02:00,
2013-05-04 05:12:00,41.0,36.0,29.96,NW,314,0.0,0.0,81,0.00,,,0.00,,2013-05-04 10:12:00,
2013-05-04 05:22:00,40.0,35.0,29.96,NW,314,0.0,0.0,81,0.00,,,0.00,,2013-05-04 10:22:00,
2013-05-04 05:33:00,40.0,35.0,29.96,NW,315,0.0,0.0,82,0.00,,,0.00,,2013-05-04 10:33:00,
2013-05-04 05:42:00,40.0,35.0,29.96,NW,315,0.0,0.0,82,0.00,,,0.00,,2013-05-04 10:42:00,
2013-05-04 05:53:00,40.0,35.0,29.96,NW,314,0.0,0.0,83,0.00,,,0.00,,2013-05-04 10:53:00,
2013-05-04 06:02:00,40.0,35.0,29.96,NW,315,0.0,0.0,83,0.00,,,0.00,,2013-05-04 11:02:00,
2013-05-04 06:11:00,40.0,35.0,29.96,NW,315,0.0,0.0,83,0.00,,,0.00,,2013-05-04 11:11:00,
2013-05-04 06:21:00,39.0,35.0,29.96,NW,314,0.0,0.0,84,0.00,,,0.00,,2013-05-04 11:21:00,
2013-05-04 06:32:00,39.0,35.0,29.96,NW,315,0.0,0.0,84,0.00,,,0.00,,2013-05-04 11:32:00,
2013-05-04 06:42:00,39.0,35.0,29.96,NW,315,0.0,0.0,84,0.00,,,0.00,,2013-05-04 11:42:00,
2013-05-04 07:01:00,39.0,35.0,29.95,NW,314,0.0,0.0,85,0.00,,,0.00,,2013-05-04 12:01:00,
2013-05-04 07:13:00,39.0,35.0,29.95,NW,315,0.0,0.0,85,0.00,,,0.00,,2013-05-04 12:13:00,
2013-05-04 07:27:00,39.0,35.0,29.94,NW,315,0.0,0.0,85,0.00,,,0.00,,2013-05-04 12:27:00,
2013-05-04 07:36:00,40.0,36.0,29.95,NW,315,0.0,0.0,84,0.00,,,0.00,,2013-05-04 12:36:00,
2013-05-04 07:42:00,40.0,36.0,29.95,NW,315,0.0,0.0,84,0.00,,,0.00,,2013-05-04 12:42:00,
2013-05-04 07:52:00,42.0,37.0,29.95,NW,315,0.0,0.0,83,0.00,,,0.00,,2013-05-04 12:52:00,
2013-05-04 08:01:00,44.0,38.0,29.96,NW,315,0.0,0.0,80,0.00,,,0.00,,2013-05-04 13:01:00,
2013-05-04 08:32:00,48.0,39.0,29.97,NNW,329,6.0,9.0,71,0.00,,,0.00,,2013-05-04 13:32:00,
2013-05-04 08:41:00,48.0,39.0,29.97,NNW,329,6.0,9.0,71,0.00,,,0.00,,2013-05-04 13:41:00,
2013-05-04 08:52:00,49.0,39.0,29.97,NW,318,0.0,6.0,68,0.00,,,0.00,,2013-05-04 13:52:00,
2013-05-04 09:02:00,51.0,39.0,29.96,NW,314,0.0,0.0,63,0.00,,,0.00,,2013-05-04 14:02:00,
2013-05-04 09:11:00,51.0,39.0,29.96,NW,314,0.0,0.0,63,0.00,,,0.00,,2013-05-04 14:11:00,
2013-05-04 09:21:00,53.0,36.0,29.96,WNW,294,0.0,0.0,53,0.00,,,0.00,,2013-05-04 14:21:00,
2013-05-04 09:32:00,54.0,36.0,29.96,West,281,0.0,0.0,50,0.00,,,0.00,,2013-05-04 14:32:00,
2013-05-04 09:41:00,54.0,36.0,29.96,West,281,0.0,0.0,50,0.00,,,0.00,,2013-05-04 14:41:00,
2013-05-04 09:52:00,56.0,37.0,29.97,WNW,285,0.0,0.0,48,0.00,,,0.00,,2013-05-04 14:52:00,
2013-05-04 10:02:00,57.0,35.0,29.96,West,275,0.0,0.0,44,0.00,,,0.00,,2013-05-04 15:02:00,
2013-05-04 10:11:00,57.0,35.0,29.96,West,275,0.0,0.0,44,0.00,,,0.00,,2013-05-04 15:11:00,
2013-05-04 10:22:00,59.0,36.0,29.96,West,267,0.0,0.0,42,0.00,,,0.00,,2013-05-04 15:22:00,
2013-05-04 10:33:00,60.0,36.0,29.96,West,281,0.0,0.0,41,0.00,,,0.00,,2013-05-04 15:33:00,
2013-05-04 10:43:00,60.0,36.0,29.96,West,281,0.0,0.0,41,0.00,,,0.00,,2013-05-04 15:43:00,
2013-05-04 10:53:00,61.0,36.0,29.95,NW,308,0.0,0.0,39,0.00,,,0.00,,2013-05-04 15:53:00,
2013-05-04 11:03:00,64.0,38.0,29.95,NW,308,0.0,0.0,38,0.00,,,0.00,,2013-05-04 16:03:00,
2013-05-04 11:12:00,64.0,38.0,29.95,NW,308,0.0,0.0,38,0.00,,,0.00,,2013-05-04 16:12:00,
2013-05-04 11:22:00,65.0,37.0,29.96,WNW,287,0.0,0.0,35,0.00,,,0.00,,2013-05-04 16:22:00,
2013-05-04 11:33:00,66.0,35.0,29.96,NW,322,0.0,0.0,32,0.00,,,0.00,,2013-05-04 16:33:00,
2013-05-04 11:42:00,66.0,35.0,29.96,NW,322,0.0,0.0,32,0.00,,,0.00,,2013-05-04 16:42:00,
2013-05-04 11:52:00,67.0,34.0,29.96,NW,316,0.0,0.0,29,0.00,,,0.00,,2013-05-04 16:52:00,
2013-05-04 12:02:00,68.0,33.0,29.96,WNW,302,0.0,0.0,27,0.00,,,0.00,,2013-05-04 17:02:00,
2013-05-04 12:12:00,68.0,33.0,29.96,WNW,302,0.0,0.0,27,0.00,,,0.00,,2013-05-04 17:12:00,
2013-05-04 12:22:00,68.0,33.0,29.96,WNW,292,0.0,0.0,27,0.00,,,0.00,,2013-05-04 17:22:00,
2013-05-04 12:32:00,68.0,33.0,29.96,WNW,298,0.0,0.0,27,0.00,,,0.00,,2013-05-04 17:32:00,
2013-05-04 12:42:00,68.0,33.0,29.96,WNW,298,0.0,0.0,27,0.00,,,0.00,,2013-05-04 17:42:00,
2013-05-04 12:52:00,69.0,35.0,29.95,WNW,286,0.0,0.0,28,0.00,,,0.00,,2013-05-04 17:52:00,
2013-05-04 13:01:00,69.0,35.0,29.95,NW,309,0.0,0.0,28,0.00,,,0.00,,2013-05-04 18:01:00,
2013-05-04 13:12:00,69.0,35.0,29.95,NW,309,0.0,0.0,28,0.00,,,0.00,,2013-05-04 18:12:00,
2013-05-04 13:21:00,70.0,35.0,29.94,NW,317,0.0,0.0,28,0.00,,,0.00,,2013-05-04 18:21:00,
2013-05-04 13:32:00,69.0,34.0,29.94,West,273,0.0,0.0,27,0.00,,,0.00,,2013-05-04 18:32:00,
2013-05-04 13:42:00,69.0,34.0,29.94,West,273,0.0,0.0,27,0.00,,,0.00,,2013-05-04 18:42:00,
2013-05-04 13:52:00,70.0,34.0,29.93,WNW,295,0.0,0.0,27,0.00,,,0.00,,2013-05-04 18:52:00,
2013-05-04 14:01:00,70.0,34.0,29.93,NW,304,0.0,0.0,27,0.00,,,0.00,,2013-05-04 19:01:00,
2013-05-04 14:11:00,70.0,34.0,29.93,NW,304,0.0,0.0,27,0.00,,,0.00,,2013-05-04 19:11:00,
2013-05-04 14:21:00,71.0,36.0,29.93,NW,310,0.0,0.0,28,0.00,,,0.00,,2013-05-04 19:21:00,
2013-05-04 14:32:00,71.0,35.0,29.93,West,281,0.0,0.0,27,0.00,,,0.00,,2013-05-04 19:32:00,
2013-05-04 14:42:00,71.0,35.0,29.93,West,281,0.0,0.0,27,0.00,,,0.00,,2013-05-04 19:42:00,
2013-05-04 14:52:00,71.0,37.0,29.92,West,276,0.0,0.0,29,0.00,,,0.00,,2013-05-04 19:52:00,
2013-05-04 15:02:00,71.0,36.0,29.91,NNW,342,0.0,0.0,28,0.00,,,0.00,,2013-05-04 20:02:00,
2013-05-04 15:11:00,71.0,36.0,29.91,NNW,342,0.0,0.0,28,0.00,,,0.00,,2013-05-04 20:11:00,
2013-05-04 15:22:00,72.0,37.0,29.91,West,271,0.0,0.0,28,0.00,,,0.00,,2013-05-04 20:22:00,
2013-05-04 15:32:00,72.0,34.0,29.91,NW,317,0.0,0.0,25,0.00,,,0.00,,2013-05-04 20:32:00,
2013-05-04 15:42:00,72.0,34.0,29.91,NW,317,0.0,0.0,25,0.00,,,0.00,,2013-05-04 20:42:00,
2013-05-04 15:52:00,72.0,37.0,29.90,NW,325,0.0,0.0,28,0.00,,,0.00,,2013-05-04 20:52:00,
2013-05-04 16:02:00,72.0,36.0,29.89,NNW,338,0.0,0.0,27,0.00,,,0.00,,2013-05-04 21:02:00,
2013-05-04 16:11:00,72.0,36.0,29.89,NNW,338,0.0,0.0,27,0.00,,,0.00,,2013-05-04 21:11:00,
2013-05-04 16:22:00,72.0,35.0,29.89,NW,312,0.0,0.0,26,0.00,,,0.00,,2013-05-04 21:22:00,
2013-05-04 16:33:00,72.0,35.0,29.89,NW,312,0.0,0.0,26,0.00,,,0.00,,2013-05-04 21:33:00,
2013-05-04 16:43:00,72.0,35.0,29.89,NW,312,0.0,0.0,26,0.00,,,0.00,,2013-05-04 21:43:00,
2013-05-04 16:53:00,72.0,35.0,29.89,NW,316,0.0,0.0,26,0.00,,,0.00,,2013-05-04 21:53:00,
2013-05-04 17:03:00,75.0,38.0,29.88,NNW,348,1.0,13.0,26,0.00,,,0.00,,2013-05-04 22:03:00,
2013-05-04 17:12:00,75.0,38.0,29.88,NNW,348,1.0,13.0,26,0.00,,,0.00,,2013-05-04 22:12:00,
2013-05-04 17:22:00,74.0,36.0,29.88,NW,320,2.0,15.0,25,0.00,,,0.00,,2013-05-04 22:22:00,
2013-05-04 17:33:00,74.0,34.0,29.88,NNW,335,2.0,13.0,23,0.00,,,0.00,,2013-05-04 22:33:00,
2013-05-04 17:42:00,73.0,36.0,29.88,NW,321,2.0,13.0,26,0.00,,,0.00,,2013-05-04 22:42:00,
2013-05-04 17:52:00,73.0,36.0,29.88,NW,321,2.0,13.0,26,0.00,,,0.00,,2013-05-04 22:52:00,
2013-05-04 18:02:00,73.0,35.0,29.88,NW,324,1.0,10.0,25,0.00,,,0.00,,2013-05-04 23:02:00,
2013-05-04 18:11:00,73.0,35.0,29.88,NW,324,1.0,10.0,25,0.00,,,0.00,,2013-05-04 23:11:00,
2013-05-04 18:21:00,74.0,35.0,29.88,North,354,1.0,8.0,24,0.00,,,0.00,,2013-05-04 23:21:00,
2013-05-04 18:32:00,74.0,36.0,29.88,NNW,331,0.0,3.0,25,0.00,,,0.00,,2013-05-04 23:32:00,
2013-05-04 18:42:00,74.0,36.0,29.88,NNW,331,0.0,3.0,25,0.00,,,0.00,,2013-05-04 23:42:00,
2013-05-04 18:52:00,73.0,34.0,29.88,NW,317,1.0,12.0,24,0.00,,,0.00,,2013-05-04 23:52:00,
2013-05-04 19:01:00,72.0,34.0,29.88,NW,324,1.0,10.0,25,0.00,,,0.00,,2013-05-05 00:01:00,
2013-05-04 19:11:00,72.0,34.0,29.88,NW,324,1.0,10.0,25,0.00,,,0.00,,2013-05-05 00:11:00,
2013-05-04 19:21:00,71.0,32.0,29.88,NNW,339,2.0,13.0,24,0.00,,,0.00,,2013-05-05 00:21:00,
2013-05-04 19:31:00,71.0,32.0,29.88,North,2,1.0,3.0,24,0.00,,,0.00,,2013-05-05 00:31:00,
2013-05-04 19:42:00,71.0,32.0,29.88,North,2,1.0,3.0,24,0.00,,,0.00,,2013-05-05 00:42:00,
2013-05-04 19:51:00,70.0,33.0,29.89,NNW,341,0.0,2.0,25,0.00,,,0.00,,2013-05-05 00:51:00,
2013-05-04 20:01:00,69.0,31.0,29.89,NW,325,0.0,3.0,24,0.00,,,0.00,,2013-05-05 01:01:00,
2013-05-04 20:11:00,69.0,31.0,29.90,NW,325,0.0,0.0,24,0.00,,,0.00,,2013-05-05 01:11:00,
2013-05-04 20:21:00,69.0,31.0,29.90,NW,325,0.0,0.0,24,0.00,,,0.00,,2013-05-05 01:21:00,
2013-05-04 20:32:00,67.0,30.0,29.91,NNW,332,0.0,0.0,25,0.00,,,0.00,,2013-05-05 01:32:00,
2013-05-04 20:42:00,67.0,30.0,29.91,NNW,332,0.0,0.0,25,0.00,,,0.00,,2013-05-05 01:42:00,
2013-05-04 20:52:00,66.0,30.0,29.92,NNW,332,0.0,0.0,26,0.00,,,0.00,,2013-05-05 01:52:00,
2013-05-04 21:02:00,65.0,29.0,29.92,NNW,332,0.0,0.0,26,0.00,,,0.00,,2013-05-05 02:02:00,
2013-05-04 21:11:00,65.0,29.0,29.92,NNW,332,0.0,0.0,26,0.00,,,0.00,,2013-05-05 02:11:00,
2013-05-04 21:21:00,64.0,29.0,29.93,NNW,332,0.0,0.0,27,0.00,,,0.00,,2013-05-05 02:21:00,
2013-05-04 21:31:00,64.0,34.0,29.94,NNE,25,0.0,0.0,32,0.00,,,0.00,,2013-05-05 02:31:00,
2013-05-04 21:42:00,64.0,34.0,29.94,NNE,25,0.0,0.0,32,0.00,,,0.00,,2013-05-05 02:42:00,
2013-05-04 21:52:00,62.0,39.0,29.95,North,10,0.0,0.0,42,0.00,,,0.00,,2013-05-05 02:52:00,
2013-05-04 22:01:00,60.0,39.0,29.97,North,355,0.0,0.0,46,0.00,,,0.00,,2013-05-05 03:01:00,
2013-05-04 22:11:00,59.0,39.0,29.98,North,355,6.0,9.0,47,0.00,,,0.00,,2013-05-05 03:11:00,
2013-05-04 22:21:00,59.0,39.0,29.98,North,355,6.0,9.0,47,0.00,,,0.00,,2013-05-05 03:21:00,
2013-05-04 22:33:00,58.0,39.0,29.98,NNE,21,6.0,10.0,49,0.00,,,0.00,,2013-05-05 03:33:00,
2013-05-04 22:42:00,58.0,39.0,29.98,NNE,21,6.0,10.0,49,0.00,,,0.00,,2013-05-05 03:42:00,
2013-05-04 22:53:00,57.0,38.0,29.99,North,11,7.0,15.0,48,0.00,,,0.00,,2013-05-05 03:53:00,
2013-05-04 23:02:00,57.0,39.0,30.00,NNE,14,6.0,9.0,50,0.00,,,0.00,,2013-05-05 04:02:00,
2013-05-04 23:12:00,56.0,38.0,30.00,NNE,15,4.0,6.0,51,0.00,,,0.00,,2013-05-05 04:12:00,
2013-05-04 23:22:00,56.0,38.0,30.00,NNE,15,4.0,6.0,51,0.00,,,0.00,,2013-05-05 04:22:00,
2013-05-04 23:32:00,56.0,39.0,30.00,NNE,17,1.0,3.0,53,0.00,,,0.00,,2013-05-05 04:32:00,
2013-05-04 23:43:00,56.0,39.0,30.00,NNE,17,1.0,3.0,53,0.00,,,0.00,,2013-05-05 04:43:00,
2013-05-04 23:53:00,55.0,39.0,30.00,NNE,17,2.0,6.0,54,0.00,,,0.00,,2013-05-05 04:53:00,